Gates of the Arctic National Park, AK

6:25 AM AKDT on August 20, 2014 (GMT -0800)
Bettles | Change Station
CLOSE
Current Station
Airport
Location: Bettles,
Elevation: 643 ft
Nearby Weather Stations

Elev 643 ft 66.91 °N, 151.53 °W | Updated 32 minutes ago

Partly Cloudy
Partly Cloudy
40 °F
Feels Like 40 °F
N
0
Wind Variable Wind from North

Today
High -- | Low -- °F
--% Chance of Precip.
Yesterday
High -- | Low -- °F
Precip. -- in
5:48 AM 10:20 PM
Waning Crescent, 21% visible
Pressure 30.07 in
Visibility 10.0 miles
Clouds Few 8000 ft
Few 24000 ft
Dew Point 39 °F
Humidity 97%
Rainfall 0.00 in
Snow Depth 0 in
UV 0 out of 12
Pollen Not available.
Air Quality Not available.
Flu Activity Not available.
METAR PABT 201353Z 00000KT 10SM VCFG FEW080 FEW240 04/04 A3004 RMK AO2 SLP181 FGBANK DSNT N-SE AND VC S-W T00440039

More Conditions Fewer Conditions

Pressure 30.07 in
Visibility 10.0 miles
Clouds Few 8000 ft
Few 24000 ft
Dew Point 39 °F
Humidity 97%
Rainfall 0.00 in
Snow Depth 0 in
UV 0 out of 12
Pollen Not available.
Air Quality Not available.
Flu Activity Not available.
METAR PABT 201353Z 00000KT 10SM VCFG FEW080 FEW240 04/04 A3004 RMK AO2 SLP181 FGBANK DSNT N-SE AND VC S-W T00440039

More Conditions Fewer Conditions

10-Day Weather Forecast

Almanac

Astronomy

Aug. 20, 2014 Rise Set
Actual Time 5:48 AM AKDT 10:20 PM AKDT
Civil Twilight 4:32 AM AKDT 11:35 PM AKDT
Nautical Twilight 2:38 AM AKDT 1:33 AM AKDT
Astronomical Twilight Sun does not rise Sun does not rise
Moon 12:32 AM AKDT 8:10 PM AKDT
Length of Visible Light 19h 03m
Length of Day
16h 31m
Tomorrow will be 8m 3s shorter.
Waning Crescent, 21% of the Moon is Illuminated
Today
Waning Crescent
Aug 25
New
Sep 2
First Quarter
Sep 8
Full
Sep 15
Last Quarter

Today's Extremes

State Highs State Lows

Community

WunderPhotos

Upload Photos

1,745,653 photos uploaded!

Nearby

Snow Depth

Station Depth Elevation
Coldfoot 0 in 1040 ft
Fort Yukon 2 in 430 ft
Little Chena Ridge 1 in 2000 ft
Eagle Summit 0 in 3650 ft
Monument Creek 0 in 1850 ft

Earthquake Activity

City Distance Mag. Time & Date
No recent earthquake activity has been reported nearby.
Minimum magnitude displayed is 2.5.

Coastal Water Temperatures

Place Temperature
No Stations Reporting

Nearby Weather Stations